createdAt,value
2017-08-13T00:02:14.345Z,93.60
2017-08-13T00:04:42.653Z,93.70
2017-08-13T00:07:16.545Z,93.80
2017-08-13T00:12:40.194Z,93.40
2017-08-13T00:15:08.433Z,93.40
2017-08-13T00:17:35.900Z,93.40
2017-08-13T00:20:03.368Z,93.30
2017-08-13T00:22:30.823Z,93.30
2017-08-13T00:24:58.296Z,93.30
2017-08-13T00:27:26.523Z,93.50
2017-08-13T00:29:54.002Z,93.40
2017-08-13T00:32:21.468Z,93.40
2017-08-13T00:34:48.941Z,93.40
2017-08-13T00:37:17.176Z,93.40
2017-08-13T00:39:44.657Z,93.40
2017-08-13T00:42:12.113Z,93.40
2017-08-13T00:44:39.585Z,93.40
2017-08-13T00:47:07.043Z,93.40
2017-08-13T00:49:34.518Z,93.40
2017-08-13T00:52:02.748Z,93.30
2017-08-13T00:54:30.220Z,93.30
2017-08-13T00:56:57.692Z,93.40
2017-08-13T00:59:27.836Z,93.20
2017-08-13T01:01:55.686Z,93.10
2017-08-13T01:04:23.143Z,93.30
2017-08-13T01:06:52.407Z,93.10
2017-08-13T01:09:19.875Z,93.10
2017-08-13T01:11:47.354Z,93.20
2017-08-13T01:14:14.808Z,93.20
2017-08-13T01:16:42.284Z,93.40
2017-08-13T01:19:10.511Z,93.50
2017-08-13T01:21:38.039Z,93.70
2017-08-13T01:24:05.503Z,93.70
2017-08-13T01:26:32.985Z,93.90
2017-08-13T01:29:00.467Z,94.00
2017-08-13T01:31:27.967Z,94.00
2017-08-13T01:33:56.211Z,94.00
2017-08-13T01:36:23.693Z,94.00
2017-08-13T01:38:51.922Z,94.40
2017-08-13T01:41:19.408Z,94.40
2017-08-13T01:43:46.882Z,94.30
2017-08-13T01:46:15.120Z,94.20
2017-08-13T01:48:42.593Z,94.10
2017-08-13T01:51:10.070Z,94.20
2017-08-13T01:53:38.302Z,94.20
2017-08-13T01:56:05.785Z,94.10
2017-08-13T01:58:33.256Z,94.00
2017-08-13T02:01:00.741Z,94.30
2017-08-13T02:03:28.974Z,94.50
2017-08-13T02:05:56.443Z,94.50
2017-08-13T02:08:23.907Z,94.60
2017-08-13T02:10:51.395Z,94.60
2017-08-13T02:13:18.858Z,94.70
2017-08-13T02:15:46.353Z,94.40
2017-08-13T02:18:13.795Z,94.40
2017-08-13T02:20:41.269Z,94.20
2017-08-13T02:23:09.114Z,94.10
2017-08-13T02:25:36.582Z,94.30
2017-08-13T02:28:04.079Z,94.40
2017-08-13T02:30:31.546Z,94.30
2017-08-13T02:32:59.770Z,94.20
2017-08-13T02:35:27.227Z,94.10
2017-08-13T02:37:54.710Z,94.00
2017-08-13T02:40:22.177Z,94.00
2017-08-13T02:42:49.642Z,93.70
2017-08-13T02:45:17.112Z,93.90
2017-08-13T02:47:45.352Z,93.90
2017-08-13T02:50:12.813Z,93.70
2017-08-13T02:52:40.300Z,93.60
2017-08-13T02:55:07.759Z,93.70
2017-08-13T02:57:35.229Z,93.70
2017-08-13T03:00:03.469Z,93.70
2017-08-13T03:02:30.928Z,93.70
2017-08-13T03:04:58.400Z,93.60
2017-08-13T03:07:25.869Z,93.50
2017-08-13T03:09:53.335Z,93.40
2017-08-13T03:12:21.556Z,93.50
2017-08-13T03:14:49.030Z,93.30
2017-08-13T03:17:16.490Z,93.20
2017-08-13T03:19:43.971Z,93.20
2017-08-13T03:22:11.892Z,93.40
2017-08-13T03:24:39.362Z,93.30
2017-08-13T03:27:06.834Z,93.50
2017-08-13T03:29:34.307Z,93.70
2017-08-13T03:32:01.768Z,93.80
2017-08-13T03:34:29.253Z,93.70
2017-08-13T03:36:57.485Z,93.60
2017-08-13T03:39:24.962Z,93.60
2017-08-13T03:41:52.424Z,93.60
2017-08-13T03:44:19.902Z,93.60
2017-08-13T03:46:50.260Z,93.90
2017-08-13T03:49:17.725Z,93.90
2017-08-13T03:51:52.654Z,94.20
2017-08-13T03:54:33.183Z,94.10
2017-08-13T03:57:01.483Z,94.10
2017-08-13T03:59:28.976Z,94.50
2017-08-13T04:01:56.435Z,94.80
2017-08-13T04:04:23.891Z,95.10
2017-08-13T04:06:51.362Z,95.10
2017-08-13T04:09:18.828Z,95.10
2017-08-13T04:11:46.307Z,94.90
2017-08-13T04:14:14.539Z,95.00
2017-08-13T04:16:42.007Z,95.00
2017-08-13T04:19:09.467Z,94.90
2017-08-13T04:21:36.936Z,94.80
2017-08-13T04:24:04.391Z,95.00
2017-08-13T04:26:31.867Z,95.10
2017-08-13T04:29:00.091Z,95.20
2017-08-13T04:31:27.564Z,95.20
2017-08-13T04:33:55.020Z,95.20
2017-08-13T04:36:22.494Z,95.00
2017-08-13T04:38:49.951Z,94.90
2017-08-13T04:41:17.424Z,94.80
2017-08-13T04:43:44.883Z,94.70
2017-08-13T04:46:12.351Z,94.50
2017-08-13T04:48:41.481Z,94.90
2017-08-13T04:51:08.946Z,94.50
2017-08-13T04:53:36.406Z,94.40
2017-08-13T04:56:03.884Z,94.30
2017-08-13T04:58:31.349Z,94.60
2017-08-13T05:00:58.810Z,94.40
2017-08-13T05:03:26.282Z,94.50
2017-08-13T05:05:53.752Z,94.40
2017-08-13T05:08:21.220Z,94.70
2017-08-13T05:10:49.458Z,94.90
2017-08-13T05:13:16.928Z,94.90
2017-08-13T05:15:44.387Z,94.80
2017-08-13T05:18:11.860Z,94.60
2017-08-13T05:20:39.336Z,94.20
2017-08-13T05:23:08.291Z,94.20
2017-08-13T05:25:35.756Z,94.20
2017-08-13T05:28:03.236Z,94.00
2017-08-13T05:30:31.473Z,93.60
2017-08-13T05:32:58.927Z,93.80
2017-08-13T05:35:26.391Z,94.10
2017-08-13T05:37:53.851Z,94.00
2017-08-13T05:40:22.575Z,94.20
2017-08-13T05:42:50.804Z,94.70
2017-08-13T05:45:18.271Z,94.50
2017-08-13T05:47:45.742Z,94.50
2017-08-13T05:50:13.216Z,94.30
2017-08-13T05:52:40.684Z,94.40
2017-08-13T05:55:08.923Z,94.70
2017-08-13T05:57:36.399Z,94.70
2017-08-13T06:00:03.866Z,94.80
2017-08-13T06:02:32.103Z,94.80
2017-08-13T06:04:59.576Z,94.80
2017-08-13T06:07:27.052Z,94.60
2017-08-13T06:09:54.528Z,94.40
2017-08-13T06:12:22.755Z,93.80
2017-08-13T06:14:50.243Z,93.80
2017-08-13T06:17:17.731Z,93.70
2017-08-13T06:19:45.962Z,93.50
2017-08-13T06:22:13.431Z,93.40
2017-08-13T06:24:40.891Z,92.80
2017-08-13T06:27:08.362Z,92.60
2017-08-13T06:29:35.832Z,92.50
2017-08-13T06:32:04.074Z,92.50
2017-08-13T06:34:31.553Z,92.50
2017-08-13T06:36:59.023Z,92.70
2017-08-13T06:39:27.255Z,91.80
2017-08-13T06:41:54.722Z,91.80
2017-08-13T06:44:22.199Z,91.60
2017-08-13T06:46:49.670Z,91.40
2017-08-13T06:49:17.904Z,91.40
2017-08-13T06:51:45.375Z,91.40
2017-08-13T06:54:12.840Z,91.20
2017-08-13T06:56:40.303Z,91.00
2017-08-13T06:59:07.762Z,90.60
2017-08-13T07:01:35.232Z,90.70
2017-08-13T07:04:02.688Z,90.40
2017-08-13T07:06:30.164Z,90.00
2017-08-13T07:08:58.389Z,83.70
2017-08-13T07:11:26.647Z,82.20
2017-08-13T07:13:54.107Z,82.10
2017-08-13T07:16:21.588Z,82.00
2017-08-13T07:18:49.039Z,82.50
2017-08-13T07:21:16.509Z,83.20
2017-08-13T07:23:43.996Z,81.50
2017-08-13T07:26:12.215Z,82.30
2017-08-13T07:28:39.691Z,82.30
2017-08-13T07:31:07.158Z,80.60
2017-08-13T07:33:34.638Z,81.20
2017-08-13T07:36:02.108Z,80.00
2017-08-13T07:38:30.339Z,79.50
2017-08-13T07:40:57.812Z,78.70
2017-08-13T07:43:25.290Z,79.90
2017-08-13T07:45:53.535Z,76.80
2017-08-13T07:48:21.006Z,76.70
2017-08-13T07:50:48.467Z,76.80
2017-08-13T07:53:15.939Z,78.10
2017-08-13T07:55:43.399Z,78.20
2017-08-13T07:58:10.879Z,79.00
2017-08-13T08:00:39.116Z,79.20
2017-08-13T08:03:09.839Z,79.20
2017-08-13T08:05:37.294Z,79.00
2017-08-13T08:08:04.757Z,79.40
2017-08-13T08:10:32.240Z,78.60
2017-08-13T08:12:59.701Z,80.20
2017-08-13T08:15:27.172Z,80.80
2017-08-13T08:17:55.403Z,78.00
2017-08-13T08:20:22.933Z,78.00
2017-08-13T08:22:50.397Z,76.50
2017-08-13T08:25:17.864Z,78.00
2017-08-13T08:27:45.319Z,78.80
2017-08-13T08:30:12.787Z,78.50
2017-08-13T08:32:40.243Z,78.20
2017-08-13T08:35:07.720Z,76.10
2017-08-13T08:37:35.176Z,77.00
2017-08-13T08:40:03.014Z,77.10
2017-08-13T08:42:30.458Z,77.00
2017-08-13T08:44:57.927Z,77.10
2017-08-13T08:47:25.390Z,74.70
2017-08-13T08:49:52.863Z,74.50
2017-08-13T08:52:20.326Z,72.90
2017-08-13T08:54:47.807Z,70.50
2017-08-13T08:57:15.273Z,71.30
2017-08-13T08:59:42.749Z,71.90
2017-08-13T09:02:10.987Z,70.60
2017-08-13T09:04:38.447Z,70.50
2017-08-13T09:07:05.922Z,71.30
2017-08-13T09:09:33.382Z,71.70
2017-08-13T09:12:00.848Z,71.50
2017-08-13T09:14:29.080Z,69.80
2017-08-13T09:16:56.555Z,69.70
2017-08-13T09:19:24.014Z,70.90
2017-08-13T09:21:51.489Z,68.60
2017-08-13T09:24:18.951Z,69.30
2017-08-13T09:26:46.434Z,66.90
2017-08-13T09:29:14.666Z,67.00
2017-08-13T09:31:42.159Z,67.00
2017-08-13T09:34:10.638Z,70.20
2017-08-13T09:36:38.156Z,70.00
2017-08-13T09:39:05.611Z,69.30
2017-08-13T09:41:33.079Z,68.50
2017-08-13T09:44:00.535Z,62.50
2017-08-13T09:46:28.010Z,64.20
2017-08-13T09:48:55.482Z,62.20
2017-08-13T09:51:22.968Z,64.10
2017-08-13T09:53:50.430Z,64.30
2017-08-13T09:56:17.882Z,61.60
2017-08-13T09:58:45.354Z,59.60
2017-08-13T10:01:12.807Z,59.10
2017-08-13T10:03:40.282Z,60.80
2017-08-13T10:06:07.736Z,57.90
2017-08-13T10:08:35.209Z,55.70
2017-08-13T10:11:02.669Z,56.30
2017-08-13T10:13:30.134Z,59.80
2017-08-13T10:15:57.586Z,62.20
2017-08-13T10:18:25.105Z,59.50
2017-08-13T10:20:52.591Z,59.70
2017-08-13T10:23:20.063Z,57.90
2017-08-13T10:25:47.524Z,58.60
2017-08-13T10:28:14.988Z,58.10
2017-08-13T10:30:42.451Z,61.00
2017-08-13T10:33:09.920Z,59.90
2017-08-13T10:35:37.383Z,58.90
2017-08-13T10:38:04.851Z,59.60
2017-08-13T10:40:33.087Z,60.00
2017-08-13T10:43:00.559Z,59.90
2017-08-13T10:45:28.019Z,60.90
2017-08-13T10:47:55.480Z,62.80
2017-08-13T10:50:23.044Z,57.40
2017-08-13T10:52:50.499Z,60.00
2017-08-13T10:55:17.967Z,56.60
2017-08-13T10:57:45.427Z,56.70
2017-08-13T11:00:12.905Z,58.20
2017-08-13T11:02:41.219Z,58.80
2017-08-13T11:05:08.676Z,58.80
2017-08-13T11:07:36.135Z,57.20
2017-08-13T11:10:03.603Z,58.60
2017-08-13T11:12:31.072Z,58.60
2017-08-13T11:14:58.541Z,57.50
2017-08-13T11:17:26.007Z,57.70
2017-08-13T11:19:53.490Z,57.70
2017-08-13T11:22:21.715Z,59.20
2017-08-13T11:24:49.183Z,59.00
2017-08-13T11:27:16.646Z,58.90
2017-08-13T11:29:44.117Z,55.40
2017-08-13T11:32:11.578Z,55.80
2017-08-13T11:34:39.111Z,57.70
2017-08-13T11:37:06.576Z,55.90
2017-08-13T11:39:34.035Z,56.80
2017-08-13T11:42:01.500Z,56.50
2017-08-13T11:44:28.971Z,55.60
2017-08-13T11:46:56.444Z,57.20
2017-08-13T11:49:24.662Z,55.60
2017-08-13T11:51:52.130Z,55.60
2017-08-13T11:54:19.599Z,57.20
2017-08-13T11:56:47.068Z,54.90
2017-08-13T11:59:14.548Z,57.50
2017-08-13T12:01:42.792Z,56.00
2017-08-13T12:04:10.247Z,55.90
2017-08-13T12:06:37.719Z,57.60
2017-08-13T12:09:05.180Z,58.20
2017-08-13T12:11:32.656Z,57.20
2017-08-13T12:14:00.888Z,53.70
2017-08-13T12:16:28.363Z,53.70
2017-08-13T12:18:55.837Z,56.70
2017-08-13T12:21:23.307Z,55.10
2017-08-13T12:23:51.557Z,54.50
2017-08-13T12:26:19.023Z,53.90
2017-08-13T12:28:46.487Z,54.50
2017-08-13T12:31:13.962Z,55.60
2017-08-13T12:33:42.190Z,55.40
2017-08-13T12:36:09.668Z,55.40
2017-08-13T12:38:37.131Z,54.40
2017-08-13T12:41:04.601Z,54.00
2017-08-13T12:43:32.063Z,55.00
2017-08-13T12:45:59.530Z,54.40
2017-08-13T12:48:27.766Z,54.80
2017-08-13T12:50:55.251Z,54.80
2017-08-13T12:53:22.712Z,53.00
2017-08-13T12:55:50.167Z,53.20
2017-08-13T12:58:17.642Z,54.60
2017-08-13T13:00:45.863Z,53.60
2017-08-13T13:03:13.326Z,53.60
2017-08-13T13:05:40.791Z,52.60
2017-08-13T13:08:08.265Z,51.80
2017-08-13T13:10:35.773Z,52.80
2017-08-13T13:13:03.247Z,51.80
2017-08-13T13:15:30.707Z,50.20
2017-08-13T13:17:58.191Z,49.10
2017-08-13T13:20:25.651Z,49.60
2017-08-13T13:22:53.118Z,48.50
2017-08-13T13:25:20.585Z,50.30
2017-08-13T13:27:48.041Z,52.10
2017-08-13T13:30:15.514Z,54.40
2017-08-13T13:32:43.747Z,54.70
2017-08-13T13:35:11.219Z,54.70
2017-08-13T13:37:38.684Z,54.80
2017-08-13T13:40:06.159Z,54.00
2017-08-13T13:42:33.611Z,51.60
2017-08-13T13:45:01.087Z,53.10
2017-08-13T13:47:29.319Z,49.00
2017-08-13T13:49:56.790Z,49.00
2017-08-13T13:52:24.250Z,50.50
2017-08-13T13:54:51.725Z,50.60
2017-08-13T13:57:19.192Z,51.90
2017-08-13T13:59:47.523Z,55.20
2017-08-13T14:02:14.979Z,54.60
2017-08-13T14:04:42.475Z,55.10
2017-08-13T14:07:09.930Z,56.80
2017-08-13T14:09:37.399Z,57.60
2017-08-13T14:12:04.863Z,59.30
2017-08-13T14:14:33.090Z,60.00
2017-08-13T14:17:00.559Z,59.90
2017-08-13T14:19:28.015Z,60.40
2017-08-13T14:21:55.491Z,61.50
2017-08-13T14:24:22.951Z,59.60
2017-08-13T14:26:50.410Z,60.30
2017-08-13T14:29:17.871Z,60.00
2017-08-13T14:31:45.339Z,60.60
2017-08-13T14:34:13.567Z,61.60
2017-08-13T14:36:41.031Z,61.90
2017-08-13T14:39:08.496Z,62.50
2017-08-13T14:41:35.968Z,61.10
2017-08-13T14:44:03.427Z,61.50
2017-08-13T14:46:30.901Z,61.30
2017-08-13T14:48:58.353Z,61.60
2017-08-13T14:51:25.823Z,62.60
2017-08-13T14:53:54.047Z,61.20
2017-08-13T14:56:21.530Z,61.60
2017-08-13T14:58:48.991Z,61.50
2017-08-13T15:01:16.468Z,61.80
2017-08-13T15:03:43.923Z,62.40
2017-08-13T15:06:11.388Z,62.90
2017-08-13T15:08:38.874Z,62.40
2017-08-13T15:11:06.327Z,62.00
2017-08-13T15:13:33.795Z,63.20
2017-08-13T15:16:01.259Z,64.10
2017-08-13T15:18:28.727Z,64.70
2017-08-13T15:20:56.301Z,64.60
2017-08-13T15:23:23.762Z,65.40
2017-08-13T15:25:51.249Z,66.00
2017-08-13T15:28:18.704Z,64.30
2017-08-13T15:30:46.167Z,64.90
2017-08-13T15:33:13.627Z,64.90
2017-08-13T15:35:41.094Z,64.50
2017-08-13T15:38:09.335Z,64.20
2017-08-13T15:40:36.803Z,64.10
2017-08-13T15:43:04.293Z,62.90
2017-08-13T15:45:31.787Z,63.80
2017-08-13T15:47:59.256Z,64.20
2017-08-13T15:50:27.115Z,63.30
2017-08-13T15:52:54.591Z,63.40
2017-08-13T15:55:22.056Z,63.40
2017-08-13T15:57:49.515Z,61.30
2017-08-13T16:00:16.990Z,62.40
2017-08-13T16:02:44.467Z,64.80
2017-08-13T16:05:12.703Z,63.10
2017-08-13T16:07:40.191Z,62.90
2017-08-13T16:10:09.547Z,64.60
2017-08-13T16:12:37.950Z,63.90
2017-08-13T16:15:05.418Z,65.00
2017-08-13T16:17:32.880Z,65.50
2017-08-13T16:20:00.343Z,66.60
2017-08-13T16:22:27.802Z,68.60
2017-08-13T16:24:55.318Z,69.60
2017-08-13T16:27:22.784Z,70.60
2017-08-13T16:29:50.260Z,71.40
2017-08-13T16:32:17.750Z,71.80
2017-08-13T16:34:45.306Z,73.20
2017-08-13T16:37:12.758Z,73.60
2017-08-13T16:39:40.233Z,73.90
2017-08-13T16:42:08.468Z,75.30
2017-08-13T16:44:36.759Z,75.30
2017-08-13T16:47:04.227Z,75.40
2017-08-13T16:49:31.682Z,76.10
2017-08-13T16:51:59.174Z,76.50
2017-08-13T16:54:26.639Z,77.00
2017-08-13T16:56:59.019Z,77.00
2017-08-13T16:59:26.501Z,77.50
2017-08-13T17:01:54.002Z,76.80
2017-08-13T17:04:22.300Z,76.60
2017-08-13T17:06:50.527Z,77.00
2017-08-13T17:09:17.982Z,76.90
2017-08-13T17:11:45.471Z,76.70
2017-08-13T17:14:12.940Z,77.00
2017-08-13T17:16:41.240Z,77.10
2017-08-13T17:19:08.788Z,77.10
2017-08-13T17:21:37.022Z,77.30
2017-08-13T17:24:04.483Z,77.20
2017-08-13T17:26:31.960Z,77.50
2017-08-13T17:29:00.234Z,77.90
2017-08-13T17:31:28.095Z,77.80
2017-08-13T17:33:56.115Z,77.80
2017-08-13T17:36:23.587Z,77.60
2017-08-13T17:38:51.119Z,77.70
2017-08-13T17:41:18.580Z,78.10
2017-08-13T17:43:46.052Z,78.30
2017-08-13T17:46:13.516Z,78.80
2017-08-13T17:48:41.016Z,79.20
2017-08-13T17:51:08.503Z,79.10
2017-08-13T17:53:36.731Z,79.10
2017-08-13T17:56:04.190Z,79.10
2017-08-13T17:58:31.664Z,79.60
2017-08-13T18:00:59.147Z,79.20
2017-08-13T18:03:27.387Z,78.60
2017-08-13T18:05:54.844Z,78.50
2017-08-13T18:08:22.324Z,78.80
2017-08-13T18:10:50.622Z,78.70
2017-08-13T18:13:18.867Z,79.20
2017-08-13T18:15:46.389Z,79.10
2017-08-13T18:18:13.863Z,79.50
2017-08-13T18:20:41.328Z,78.80
2017-08-13T18:23:09.026Z,78.60
2017-08-13T18:25:36.751Z,79.00
2017-08-13T18:28:04.214Z,80.20
2017-08-13T18:30:31.680Z,79.70
2017-08-13T18:32:59.170Z,79.70
2017-08-13T18:35:27.574Z,79.70
2017-08-13T18:37:55.065Z,79.80
2017-08-13T18:40:22.553Z,80.50
2017-08-13T18:42:50.092Z,80.60
2017-08-13T18:45:17.559Z,80.60
2017-08-13T18:47:45.023Z,81.30
2017-08-13T18:50:12.487Z,81.20
2017-08-13T18:52:39.943Z,81.20
2017-08-13T18:55:07.411Z,81.70
2017-08-13T18:57:34.925Z,81.60
2017-08-13T19:00:02.407Z,81.70
2017-08-13T19:02:29.870Z,82.00
2017-08-13T19:04:57.343Z,81.90
2017-08-13T19:07:25.585Z,82.30
2017-08-13T19:09:53.049Z,82.30
2017-08-13T19:12:21.208Z,82.50
2017-08-13T19:14:49.483Z,82.70
2017-08-13T19:17:17.853Z,82.90
2017-08-13T19:19:45.314Z,83.00
2017-08-13T19:22:14.374Z,83.50
2017-08-13T19:24:42.615Z,83.80
2017-08-13T19:27:10.131Z,83.60
2017-08-13T19:29:37.588Z,83.90
2017-08-13T19:32:05.055Z,83.80
2017-08-13T19:34:32.508Z,84.10
2017-08-13T19:36:59.983Z,84.90
2017-08-13T19:39:27.468Z,84.20
2017-08-13T19:41:54.962Z,84.90
2017-08-13T19:44:23.193Z,84.70
2017-08-13T19:46:50.661Z,84.60
2017-08-13T19:49:19.180Z,84.70
2017-08-13T19:51:46.692Z,85.00
2017-08-13T19:54:14.161Z,85.50
2017-08-13T19:56:45.295Z,85.80
2017-08-13T19:59:12.760Z,86.10
2017-08-13T20:01:40.668Z,86.90
2017-08-13T20:04:08.921Z,87.30
2017-08-13T20:06:36.419Z,87.30
2017-08-13T20:09:03.874Z,88.00
2017-08-13T20:11:32.561Z,88.10
2017-08-13T20:14:00.095Z,88.80
2017-08-13T20:16:28.482Z,89.60
2017-08-13T20:18:56.969Z,89.60
2017-08-13T20:21:25.331Z,89.20
2017-08-13T20:23:53.567Z,89.10
2017-08-13T20:26:21.040Z,89.10
2017-08-13T20:28:48.522Z,89.10
2017-08-13T20:31:15.983Z,88.90
2017-08-13T20:33:44.223Z,88.90
2017-08-13T20:36:11.695Z,89.40
2017-08-13T20:38:39.162Z,89.50
2017-08-13T20:41:06.628Z,89.50
2017-08-13T20:43:34.098Z,89.30
2017-08-13T20:46:02.323Z,90.50
2017-08-13T20:48:29.836Z,90.40
2017-08-13T20:50:58.061Z,90.40
2017-08-13T20:53:25.531Z,90.30
2017-08-13T20:55:52.988Z,90.30
2017-08-13T20:58:20.459Z,90.10
2017-08-13T21:00:48.232Z,90.10
2017-08-13T21:03:18.100Z,90.00
2017-08-13T21:05:45.563Z,90.40
2017-08-13T21:08:13.035Z,90.20
2017-08-13T21:10:40.499Z,90.10
2017-08-13T21:13:07.989Z,90.20
2017-08-13T21:15:35.430Z,90.40
2017-08-13T21:18:02.913Z,90.50
2017-08-13T21:20:31.134Z,90.40
2017-08-13T21:22:58.595Z,90.40
2017-08-13T21:25:26.127Z,90.50
2017-08-13T21:27:53.648Z,90.50
2017-08-13T21:30:21.112Z,90.40
2017-08-13T21:32:48.575Z,90.50
2017-08-13T21:35:16.035Z,90.50
2017-08-13T21:37:44.259Z,90.60
2017-08-13T21:40:11.728Z,90.60
2017-08-13T21:42:39.183Z,90.80
2017-08-13T21:45:06.647Z,91.50
2017-08-13T21:47:34.242Z,91.70
2017-08-13T21:50:02.657Z,91.90
2017-08-13T21:52:30.296Z,91.80
2017-08-13T21:54:59.520Z,91.80
2017-08-13T21:57:26.987Z,91.80
2017-08-13T21:59:54.455Z,91.70
2017-08-13T22:02:21.910Z,91.60
2017-08-13T22:04:49.375Z,91.50
2017-08-13T22:10:10.444Z,91.20
2017-08-13T22:12:37.902Z,91.20
2017-08-13T22:15:05.390Z,91.10
2017-08-13T22:17:32.851Z,90.80
2017-08-13T22:20:00.313Z,91.10
2017-08-13T22:22:27.785Z,90.90
2017-08-13T22:24:55.248Z,90.90
2017-08-13T22:27:22.722Z,90.80
2017-08-13T22:29:50.180Z,90.70
2017-08-13T22:32:17.650Z,90.70
2017-08-13T22:34:45.114Z,90.60
2017-08-13T22:37:12.603Z,90.80
2017-08-13T22:39:40.823Z,90.80
2017-08-13T22:42:08.311Z,90.80
2017-08-13T22:44:35.779Z,90.80
2017-08-13T22:47:04.024Z,90.50
2017-08-13T22:49:31.490Z,90.50
2017-08-13T22:51:58.956Z,90.70
2017-08-13T22:54:27.263Z,90.60
2017-08-13T22:56:55.496Z,90.50
2017-08-13T22:59:23.017Z,90.50
2017-08-13T23:01:50.510Z,90.70
2017-08-13T23:04:18.147Z,91.00
2017-08-13T23:06:45.608Z,91.00
2017-08-13T23:09:13.074Z,90.90
2017-08-13T23:11:40.562Z,90.80
2017-08-13T23:14:08.014Z,90.80
2017-08-13T23:16:35.627Z,90.80
2017-08-13T23:19:03.104Z,90.80
2017-08-13T23:21:30.608Z,91.00
2017-08-13T23:23:58.077Z,91.00
2017-08-13T23:26:26.311Z,90.70
2017-08-13T23:28:53.780Z,90.70
2017-08-13T23:31:21.254Z,90.90
2017-08-13T23:33:48.883Z,91.10
2017-08-13T23:36:17.107Z,91.00
2017-08-13T23:38:45.739Z,91.30
2017-08-13T23:41:13.195Z,90.90
2017-08-13T23:43:40.712Z,91.10
2017-08-13T23:46:08.944Z,91.50
2017-08-13T23:48:36.435Z,91.40
2017-08-13T23:51:03.899Z,91.40
2017-08-13T23:53:31.439Z,91.50
2017-08-13T23:55:58.905Z,91.30
2017-08-13T23:58:40.732Z,91.40
